createdAt,value
2019-05-26T00:00:02.631Z,96.08
2019-05-26T00:01:01.339Z,95.98
2019-05-26T00:01:59.872Z,95.5
2019-05-26T00:02:59.368Z,96.75
2019-05-26T00:03:57.929Z,96.66
2019-05-26T00:04:56.566Z,96.7
2019-05-26T00:05:55.217Z,97.19
2019-05-26T00:06:53.796Z,97.66
2019-05-26T00:07:52.324Z,97.57
2019-05-26T00:08:50.955Z,97.57
2019-05-26T00:09:49.517Z,98.34
2019-05-26T00:10:48.147Z,97.76
2019-05-26T00:11:46.793Z,98.34
2019-05-26T00:12:45.555Z,98.24
2019-05-26T00:13:44.201Z,98.53
2019-05-26T00:14:42.950Z,99.4
2019-05-26T00:15:41.546Z,99.25
2019-05-26T00:16:40.112Z,99.99
2019-05-26T00:17:38.858Z,99.3
2019-05-26T00:18:37.402Z,99.3
2019-05-26T00:19:35.997Z,99.4
2019-05-26T00:20:34.785Z,99.2
2019-05-26T00:21:33.461Z,99.1
2019-05-26T00:22:32.055Z,99.2
2019-05-26T00:23:30.632Z,99.54
2019-05-26T00:24:29.162Z,99.49
2019-05-26T00:25:27.844Z,98.91
2019-05-26T00:26:26.503Z,99.3
2019-05-26T00:27:25.252Z,99.2
2019-05-26T00:28:23.856Z,98.91
2019-05-26T00:29:22.384Z,99.3
2019-05-26T00:30:21.159Z,98.91
2019-05-26T00:31:19.777Z,99.1
2019-05-26T00:32:18.268Z,99.49
2019-05-26T00:33:16.942Z,99.99
2019-05-26T00:34:15.499Z,99.99
2019-05-26T00:35:14.047Z,99.49
2019-05-26T00:36:12.715Z,99.99
2019-05-26T00:37:11.309Z,99.58
2019-05-26T00:38:09.890Z,99.73
2019-05-26T00:39:08.678Z,99.73
2019-05-26T00:40:07.322Z,99.54
2019-05-26T00:41:05.878Z,99.99
2019-05-26T00:42:04.530Z,99.92
2019-05-26T00:43:03.201Z,99.25
2019-05-26T00:44:01.830Z,99.44
2019-05-26T00:45:00.449Z,98.96
2019-05-26T00:45:59.138Z,99.34
2019-05-26T00:46:57.704Z,98.67
2019-05-26T00:47:56.246Z,98.29
2019-05-26T00:48:54.903Z,98
2019-05-26T00:49:53.469Z,98.77
2019-05-26T00:50:52.107Z,99.05
2019-05-26T00:51:50.816Z,98.77
2019-05-26T00:52:49.363Z,98.86
2019-05-26T00:53:47.931Z,98.96
2019-05-26T00:54:46.732Z,99.15
2019-05-26T00:55:45.318Z,99.2
2019-05-26T00:56:43.909Z,99.01
2019-05-26T00:57:42.474Z,99.05
2019-05-26T00:58:41.150Z,98.86
2019-05-26T00:59:39.810Z,98.77
2019-05-26T01:00:38.317Z,98.96
2019-05-26T01:01:37.015Z,99.05
2019-05-26T01:02:35.765Z,98.67
2019-05-26T01:03:34.285Z,98.72
2019-05-26T01:04:33.698Z,99.39
2019-05-26T01:05:32.242Z,99.49
2019-05-26T01:06:31.009Z,99.29
2019-05-26T01:07:29.541Z,99.1
2019-05-26T01:08:28.158Z,99.29
2019-05-26T01:09:26.807Z,99.2
2019-05-26T01:10:25.394Z,99.49
2019-05-26T01:11:23.955Z,99.39
2019-05-26T01:12:22.705Z,99.49
2019-05-26T01:13:21.406Z,99.39
2019-05-26T01:14:19.984Z,98.72
2019-05-26T01:15:18.675Z,98.82
2019-05-26T01:16:17.318Z,99.1
2019-05-26T01:17:15.858Z,99.39
2019-05-26T01:18:14.764Z,99.68
2019-05-26T01:19:13.410Z,99.2
2019-05-26T01:20:11.960Z,98.72
2019-05-26T01:21:10.542Z,99.2
2019-05-26T01:22:09.217Z,98.82
2019-05-26T01:23:07.820Z,98.24
2019-05-26T01:24:06.371Z,99.01
2019-05-26T01:25:04.968Z,99.77
2019-05-26T01:26:03.537Z,99.58
2019-05-26T01:27:02.109Z,99.39
2019-05-26T01:28:01.216Z,99.39
2019-05-26T01:28:59.761Z,99.29
2019-05-26T01:29:58.325Z,99.87
2019-05-26T01:30:56.954Z,99.68
2019-05-26T01:31:55.575Z,98.91
2019-05-26T01:32:54.174Z,99.96
2019-05-26T01:33:52.728Z,99.91
2019-05-26T01:34:51.416Z,99.99
2019-05-26T01:35:49.987Z,99.99
2019-05-26T01:36:48.702Z,99.73
2019-05-26T01:37:47.370Z,99.99
2019-05-26T01:38:45.944Z,99.99
2019-05-26T01:39:44.579Z,99.99
2019-05-26T01:40:43.241Z,99.82
2019-05-26T01:41:41.827Z,99.82
2019-05-26T01:42:40.433Z,99.99
2019-05-26T01:43:39.202Z,99.44
2019-05-26T01:44:37.814Z,99.73
2019-05-26T01:45:36.329Z,99.73
2019-05-26T01:46:35.087Z,99.44
2019-05-26T01:47:33.651Z,98.77
2019-05-26T01:48:32.206Z,98.38
2019-05-26T01:50:31.862Z,99.34
2019-05-26T01:51:30.393Z,99.24
2019-05-26T01:52:29.308Z,99.91
2019-05-26T01:53:27.831Z,99.99
2019-05-26T01:54:26.393Z,99.53
2019-05-26T01:55:24.939Z,99.91
2019-05-26T01:56:23.531Z,99.53
2019-05-26T01:57:22.112Z,99.53
2019-05-26T01:58:20.961Z,99.91
2019-05-26T01:59:20.211Z,99.44
2019-05-26T02:00:18.794Z,99.99
2019-05-26T02:01:17.489Z,99.91
2019-05-26T02:02:16.046Z,99.53
2019-05-26T02:03:14.803Z,99.53
2019-05-26T02:04:13.501Z,99.91
2019-05-26T02:05:12.159Z,99.53
2019-05-26T02:07:52.137Z,99.15
2019-05-26T02:08:50.999Z,99.44
2019-05-26T02:09:49.557Z,99.44
2019-05-26T02:10:48.128Z,99.15
2019-05-26T02:11:46.910Z,98.77
2019-05-26T02:12:45.524Z,98.67
2019-05-26T02:13:44.078Z,99.19
2019-05-26T02:14:42.671Z,99.1
2019-05-26T02:15:41.268Z,99.19
2019-05-26T02:16:39.851Z,98.77
2019-05-26T02:17:38.439Z,98.77
2019-05-26T02:18:37.129Z,98.1
2019-05-26T02:19:35.684Z,98.28
2019-05-26T02:20:34.405Z,98.81
2019-05-26T02:21:33.017Z,98.38
2019-05-26T02:22:31.605Z,98.62
2019-05-26T02:23:30.301Z,98.33
2019-05-26T02:24:29.062Z,98.43
2019-05-26T02:25:27.629Z,98.72
2019-05-26T02:26:26.211Z,98.24
2019-05-26T02:27:25.053Z,98.33
2019-05-26T02:28:23.638Z,98.91
2019-05-26T02:29:22.196Z,98.52
2019-05-26T02:30:20.865Z,98.33
2019-05-26T02:36:37.150Z,98.62
2019-05-26T02:37:35.699Z,99.01
2019-05-26T02:38:34.304Z,98.62
2019-05-26T02:39:32.901Z,98.72
2019-05-26T02:40:31.588Z,98.14
2019-05-26T02:41:30.113Z,98.72
2019-05-26T02:42:29.201Z,97.85
2019-05-26T02:43:27.772Z,98.24
2019-05-26T02:44:26.338Z,98.52
2019-05-26T02:45:24.908Z,98.05
2019-05-26T02:46:23.469Z,98.33
2019-05-26T02:47:22.020Z,98.33
2019-05-26T02:48:20.587Z,98.14
2019-05-26T02:49:19.166Z,98.05
2019-05-26T02:50:17.748Z,97.85
2019-05-26T02:51:16.244Z,97.95
2019-05-26T02:52:14.822Z,98.33
2019-05-26T02:53:13.465Z,98.24
2019-05-26T02:54:12.047Z,98.05
2019-05-26T02:55:10.979Z,97.76
2019-05-26T02:56:09.643Z,98.05
2019-05-26T02:57:08.204Z,98.52
2019-05-26T02:58:06.783Z,97.76
2019-05-26T02:59:05.336Z,97.61
2019-05-26T03:00:03.886Z,97.09
2019-05-26T03:01:02.646Z,97.95
2019-05-26T03:02:04.069Z,97.76
2019-05-26T03:02:59.788Z,98.14
2019-05-26T03:03:58.460Z,98.33
2019-05-26T03:04:57.033Z,98.24
2019-05-26T03:05:55.584Z,97.85
2019-05-26T03:06:54.208Z,98.33
2019-05-26T03:07:52.953Z,98.52
2019-05-26T03:08:51.421Z,98.91
2019-05-26T03:09:49.978Z,98.81
2019-05-26T03:10:48.675Z,98.91
2019-05-26T03:11:47.377Z,99.19
2019-05-26T03:12:45.984Z,98.14
2019-05-26T03:13:44.823Z,98.62
2019-05-26T03:14:43.469Z,98.62
2019-05-26T03:15:42.028Z,98.72
2019-05-26T03:16:40.593Z,98.62
2019-05-26T03:17:39.326Z,98.33
2019-05-26T03:18:37.916Z,98.43
2019-05-26T03:19:36.655Z,98.43
2019-05-26T03:20:35.351Z,98.33
2019-05-26T03:21:33.910Z,98.24
2019-05-26T03:22:32.498Z,99.1
2019-05-26T03:23:31.122Z,98.14
2019-05-26T03:24:29.708Z,98.52
2019-05-26T03:25:28.309Z,97.85
2019-05-26T03:26:27.046Z,99.01
2019-05-26T03:27:25.611Z,99.1
2019-05-26T03:28:24.184Z,98.52
2019-05-26T03:29:22.952Z,98.91
2019-05-26T03:30:21.657Z,98.81
2019-05-26T03:31:20.261Z,99.1
2019-05-26T03:32:18.840Z,98.91
2019-05-26T03:33:17.388Z,99.19
2019-05-26T03:34:16.004Z,99.29
2019-05-26T03:35:14.749Z,99.01
2019-05-26T03:36:13.424Z,99.63
2019-05-26T03:37:11.993Z,99.48
2019-05-26T03:38:10.669Z,99.77
2019-05-26T03:39:09.354Z,99.87
2019-05-26T03:40:07.886Z,99.87
2019-05-26T03:41:06.465Z,98.91
2019-05-26T03:42:05.140Z,99.87
2019-05-26T03:43:03.734Z,99.39
2019-05-26T03:44:02.409Z,99.01
2019-05-26T03:45:01.272Z,99.29
2019-05-26T03:45:59.863Z,98.81
2019-05-26T03:46:58.442Z,98.91
2019-05-26T03:47:57.023Z,98.72
2019-05-26T03:48:55.587Z,98.81
2019-05-26T03:49:54.164Z,98.72
2019-05-26T03:50:52.896Z,98.72
2019-05-26T03:51:51.429Z,98.52
2019-05-26T03:52:50.014Z,98.24
2019-05-26T03:53:48.781Z,98.81
2019-05-26T03:54:47.555Z,98.43
2019-05-26T03:55:46.116Z,98.72
2019-05-26T03:56:44.687Z,98.62
2019-05-26T03:57:43.221Z,98.72
2019-05-26T03:58:41.757Z,98.72
2019-05-26T03:59:40.351Z,98.72
2019-05-26T04:00:38.985Z,99.19
2019-05-26T04:01:37.535Z,98.81
2019-05-26T04:02:36.101Z,98.43
2019-05-26T04:03:34.689Z,98.05
2019-05-26T04:04:33.270Z,98.33
2019-05-26T04:05:31.832Z,98.33
2019-05-26T04:06:30.634Z,98.33
2019-05-26T04:07:29.256Z,97.85
2019-05-26T04:08:27.834Z,97.66
2019-05-26T04:09:26.430Z,97.66
2019-05-26T04:10:25.239Z,97.76
2019-05-26T04:11:23.803Z,97.56
2019-05-26T04:12:22.385Z,97.66
2019-05-26T04:13:21.211Z,97.85
2019-05-26T04:14:19.791Z,96.7
2019-05-26T04:15:18.373Z,97.28
2019-05-26T04:16:16.936Z,97.56
2019-05-26T04:17:15.505Z,97.85
2019-05-26T04:18:14.072Z,97.28
2019-05-26T04:19:13.011Z,97.38
2019-05-26T04:20:11.893Z,97.47
2019-05-26T04:21:10.469Z,97.18
2019-05-26T04:22:09.042Z,97.18
2019-05-26T04:23:07.611Z,96.8
2019-05-26T04:24:06.150Z,95.98
2019-05-26T04:25:04.799Z,96.75
2019-05-26T04:26:03.896Z,95.7
2019-05-26T04:27:02.436Z,95.21
2019-05-26T04:28:01.054Z,94.31
2019-05-26T04:28:59.629Z,93.44
2019-05-26T04:29:58.157Z,93.15
2019-05-26T04:30:56.748Z,91.28
2019-05-26T04:31:55.336Z,90.61
2019-05-26T04:32:53.916Z,91.57
2019-05-26T04:33:52.648Z,91.66
2019-05-26T04:34:51.312Z,92.1
2019-05-26T04:35:49.882Z,92
2019-05-26T04:36:48.607Z,91.76
2019-05-26T04:37:47.231Z,91.42
2019-05-26T04:38:45.782Z,91.47
2019-05-26T04:41:26.188Z,91.81
2019-05-26T04:42:24.912Z,91.52
2019-05-26T04:43:23.500Z,91.81
2019-05-26T04:44:22.065Z,92
2019-05-26T04:45:20.672Z,91.91
2019-05-26T04:46:19.306Z,92.19
2019-05-26T04:47:17.927Z,92.86
2019-05-26T04:48:16.492Z,91.76
2019-05-26T04:49:15.121Z,91.09
2019-05-26T04:50:13.839Z,91.28
2019-05-26T04:51:12.612Z,90.99
2019-05-26T04:52:11.214Z,91.28
2019-05-26T04:53:09.775Z,90.52
2019-05-26T04:54:08.323Z,90.56
2019-05-26T04:55:06.920Z,91.19
2019-05-26T04:56:05.580Z,91.09
2019-05-26T04:57:04.121Z,90.8
2019-05-26T04:58:02.960Z,90.52
2019-05-26T04:59:01.489Z,90.61
2019-05-26T05:00:00.136Z,89.4
2019-05-26T05:00:58.819Z,88.64
2019-05-26T05:09:56.788Z,87.82
2019-05-26T05:10:55.351Z,87.77
2019-05-26T05:11:53.892Z,88.35
2019-05-26T05:12:52.478Z,88.93
2019-05-26T05:13:51.287Z,87.39
2019-05-26T05:14:49.935Z,87.96
2019-05-26T05:15:48.518Z,88.73
2019-05-26T05:16:47.079Z,88.35
2019-05-26T05:17:45.630Z,89.02
2019-05-26T05:18:44.198Z,89.6
2019-05-26T05:19:43.037Z,89.5
2019-05-26T05:20:41.597Z,89.17
2019-05-26T05:21:40.207Z,90.17
2019-05-26T05:22:38.931Z,89.89
2019-05-26T05:23:37.610Z,90.22
2019-05-26T05:24:36.190Z,90.03
2019-05-26T05:25:34.757Z,90.52
2019-05-26T05:26:33.385Z,90.22
2019-05-26T05:27:31.976Z,90.42
2019-05-26T05:28:30.713Z,90.61
2019-05-26T05:29:29.459Z,91.28
2019-05-26T05:30:28.034Z,91.47
2019-05-26T05:31:26.595Z,91.28
2019-05-26T05:32:25.283Z,91.57
2019-05-26T05:33:23.824Z,90.8
2019-05-26T05:34:22.390Z,91.19
2019-05-26T05:35:21.081Z,90.61
2019-05-26T05:36:19.649Z,90.8
2019-05-26T05:37:18.230Z,91.09
2019-05-26T05:38:16.894Z,90.61
2019-05-26T05:39:15.554Z,91.86
2019-05-26T05:40:14.130Z,91.38
2019-05-26T05:41:12.812Z,91.47
2019-05-26T05:42:11.458Z,91.38
2019-05-26T05:43:10.030Z,91.96
2019-05-26T05:44:08.571Z,91.96
2019-05-26T05:45:07.732Z,91.86
2019-05-26T05:46:06.304Z,91.66
2019-05-26T05:47:04.917Z,91.38
2019-05-26T05:48:03.478Z,90.56
2019-05-26T05:49:02.059Z,89.89
2019-05-26T05:50:00.614Z,89.83
2019-05-26T05:50:59.391Z,87.92
2019-05-26T05:51:57.936Z,86.99
2019-05-26T05:52:56.568Z,85.88
2019-05-26T05:53:55.409Z,85.6
2019-05-26T05:54:53.994Z,84.77
2019-05-26T05:55:52.548Z,83.91
2019-05-26T05:56:51.130Z,83.14
2019-05-26T05:57:49.748Z,83.81
2019-05-26T05:58:48.292Z,84
2019-05-26T05:59:47.087Z,82.75
2019-05-26T06:00:45.693Z,82.02
2019-05-26T06:01:44.227Z,82.12
2019-05-26T06:02:43.028Z,82.08
2019-05-26T06:03:41.664Z,82.41
2019-05-26T06:04:40.226Z,81.63
2019-05-26T06:05:38.809Z,81.68
2019-05-26T06:06:37.378Z,80.58
2019-05-26T06:07:35.940Z,80.52
2019-05-26T06:08:34.774Z,80.08
2019-05-26T06:09:33.540Z,79.5
2019-05-26T06:10:32.146Z,79.11
2019-05-26T06:11:31.067Z,80.23
2019-05-26T06:12:29.665Z,79.6
2019-05-26T06:13:28.301Z,78.73
2019-05-26T06:14:26.989Z,79.5
2019-05-26T06:15:25.635Z,79.11
2019-05-26T06:16:25.138Z,79.11
2019-05-26T06:17:23.709Z,78.92
2019-05-26T06:18:22.336Z,78.73
2019-05-26T06:19:20.899Z,79.21
2019-05-26T06:20:19.522Z,78.92
2019-05-26T06:21:18.250Z,79.46
2019-05-26T06:22:16.933Z,79.36
2019-05-26T06:23:15.558Z,79.11
2019-05-26T06:24:14.128Z,79.41
2019-05-26T06:25:12.956Z,79.5
2019-05-26T06:26:11.557Z,79.02
2019-05-26T06:27:10.382Z,78.73
2019-05-26T06:28:09.188Z,78.44
2019-05-26T06:29:07.760Z,78.19
2019-05-26T06:30:06.385Z,78.29
2019-05-26T06:31:05.090Z,77.81
2019-05-26T06:32:04.058Z,77.76
2019-05-26T06:33:02.409Z,77.71
2019-05-26T06:34:01.172Z,77.96
2019-05-26T06:34:59.761Z,78.15
2019-05-26T06:35:58.368Z,78.38
2019-05-26T06:36:57.114Z,77.61
2019-05-26T06:42:21.556Z,77.23
2019-05-26T07:09:07.927Z,74.25
2019-05-26T07:10:06.576Z,74.06
2019-05-26T07:11:05.222Z,73.96
2019-05-26T07:12:03.789Z,73.67
2019-05-26T07:13:02.396Z,73.58
2019-05-26T07:14:00.967Z,74.16
2019-05-26T07:14:59.572Z,73.38
2019-05-26T07:15:58.123Z,73.67
2019-05-26T07:16:57.252Z,73.67
2019-05-26T07:17:55.831Z,73.61
2019-05-26T07:18:54.488Z,73.52
2019-05-26T07:19:53.068Z,73.42
2019-05-26T07:20:51.597Z,72.94
2019-05-26T07:21:50.164Z,73.48
2019-05-26T07:22:48.747Z,72.74
2019-05-26T07:23:47.428Z,72.55
2019-05-26T07:24:46.624Z,72.55
2019-05-26T07:25:45.118Z,71.68
2019-05-26T07:26:43.706Z,71.42
2019-05-26T07:27:42.242Z,71.72
2019-05-26T07:28:40.850Z,71.68
2019-05-26T07:29:39.583Z,72.16
2019-05-26T07:30:38.158Z,71.88
2019-05-26T07:31:36.852Z,71.68
2019-05-26T07:32:35.535Z,71.58
2019-05-26T07:33:34.085Z,71
2019-05-26T07:34:32.736Z,71.48
2019-05-26T07:35:33.007Z,71.97
2019-05-26T07:36:29.902Z,71.84
2019-05-26T07:37:28.642Z,72.71
2019-05-26T07:38:27.327Z,72.36
2019-05-26T07:39:25.939Z,72.9
2019-05-26T07:40:24.722Z,72.74
2019-05-26T07:41:23.411Z,72.74
2019-05-26T07:42:21.980Z,71.72
2019-05-26T07:43:20.561Z,71.78
2019-05-26T07:44:19.313Z,72.61
2019-05-26T07:45:17.959Z,73.48
2019-05-26T07:46:16.624Z,73.09
2019-05-26T07:47:15.321Z,73.63
2019-05-26T07:48:13.871Z,73.63
2019-05-26T07:49:12.412Z,74.6
2019-05-26T07:50:11.041Z,73.86
2019-05-26T07:51:09.626Z,73.48
2019-05-26T07:52:08.238Z,73.67
2019-05-26T07:53:07.031Z,73.19
2019-05-26T07:54:05.676Z,73.48
2019-05-26T07:55:04.739Z,73.28
2019-05-26T07:56:03.447Z,73.38
2019-05-26T07:57:01.986Z,73.19
2019-05-26T07:58:00.583Z,73.38
2019-05-26T07:58:59.501Z,73.73
2019-05-26T07:59:58.102Z,73.77
2019-05-26T08:00:56.706Z,73.58
2019-05-26T08:01:55.271Z,73
2019-05-26T08:02:53.953Z,73.8
2019-05-26T08:03:52.702Z,73.32
2019-05-26T08:04:51.433Z,72.94
2019-05-26T08:05:49.974Z,72.94
2019-05-26T08:06:48.529Z,72.84
2019-05-26T08:07:47.186Z,73.13
2019-05-26T08:08:45.812Z,71.88
2019-05-26T08:09:44.374Z,72.06
2019-05-26T08:10:43.184Z,71.84
2019-05-26T08:11:41.826Z,72.71
2019-05-26T08:12:40.526Z,72.9
2019-05-26T08:13:39.139Z,72.71
2019-05-26T08:14:37.833Z,72.96
2019-05-26T08:15:36.445Z,72.71
2019-05-26T08:16:34.972Z,72.71
2019-05-26T08:17:33.536Z,72.71
2019-05-26T08:18:32.175Z,72.9
2019-05-26T08:19:30.915Z,73.67
2019-05-26T08:20:29.601Z,73.38
2019-05-26T08:21:28.193Z,73.22
2019-05-26T08:22:26.886Z,73.22
2019-05-26T08:23:25.476Z,73.42
2019-05-26T08:24:24.024Z,72.84
2019-05-26T08:25:22.567Z,72.71
2019-05-26T08:26:21.133Z,72.55
2019-05-26T08:27:19.716Z,72.03
2019-05-26T08:28:18.282Z,72.71
2019-05-26T08:29:17.023Z,72.26
2019-05-26T08:30:15.593Z,72.55
2019-05-26T08:31:14.174Z,72.9
2019-05-26T08:32:15.018Z,73.09
2019-05-26T08:33:11.576Z,73.19
2019-05-26T08:34:10.153Z,73.58
2019-05-26T08:35:08.771Z,73.48
2019-05-26T08:36:07.498Z,73.19
2019-05-26T08:37:06.080Z,73.09
2019-05-26T08:38:04.723Z,73.38
2019-05-26T08:39:03.411Z,73.09
2019-05-26T08:40:02.234Z,73.58
2019-05-26T08:41:00.540Z,73.28
2019-05-26T08:41:59.236Z,72.94
2019-05-26T08:42:57.857Z,73.52
2019-05-26T08:43:56.429Z,73
2019-05-26T08:44:55.260Z,72.84
2019-05-26T08:45:53.871Z,72.36
2019-05-26T08:46:52.435Z,72.36
2019-05-26T08:47:51.320Z,72.84
2019-05-26T08:48:49.899Z,72.36
2019-05-26T08:49:48.515Z,72.94
2019-05-26T08:50:47.367Z,72.84
2019-05-26T08:51:46.000Z,72.94
2019-05-26T08:52:44.727Z,72.74
2019-05-26T08:53:43.428Z,72.94
2019-05-26T08:54:42.010Z,73.42
2019-05-26T08:55:40.567Z,73.19
2019-05-26T08:56:39.148Z,73.03
2019-05-26T08:57:37.878Z,73.03
2019-05-26T08:58:36.605Z,73.32
2019-05-26T08:59:35.466Z,72.84
2019-05-26T09:00:36.507Z,73.42
2019-05-26T09:01:34.562Z,73.32
2019-05-26T09:02:34.027Z,74.16
2019-05-26T09:03:32.601Z,73.58
2019-05-26T09:04:31.178Z,73.19
2019-05-26T09:05:29.769Z,73.48
2019-05-26T09:06:28.343Z,73.28
2019-05-26T09:07:27.121Z,73.28
2019-05-26T09:08:25.690Z,73.48
2019-05-26T09:09:24.376Z,73.28
2019-05-26T09:10:23.544Z,74.16
2019-05-26T09:11:22.220Z,73.32
2019-05-26T09:12:20.946Z,73.52
2019-05-26T09:13:19.775Z,73.61
2019-05-26T09:14:18.291Z,73.71
2019-05-26T09:15:16.912Z,73.13
2019-05-26T09:16:15.675Z,73.42
2019-05-26T09:18:55.935Z,73.03
2019-05-26T09:19:54.474Z,72.84
2019-05-26T09:20:53.191Z,72.74
2019-05-26T09:21:51.792Z,71.88
2019-05-26T09:22:50.364Z,71.68
2019-05-26T09:23:49.215Z,71.68
2019-05-26T09:27:22.744Z,71.88
2019-05-26T09:28:21.563Z,72.06
2019-05-26T09:29:20.286Z,71.58
2019-05-26T09:30:19.113Z,71.68
2019-05-26T09:46:56.691Z,69.65
2019-05-26T09:47:55.236Z,69.4
2019-05-26T09:48:53.904Z,69.1
2019-05-26T09:49:52.617Z,68.98
2019-05-26T09:50:51.576Z,69.01
2019-05-26T09:51:50.143Z,69.78
2019-05-26T09:52:48.948Z,69.59
2019-05-26T09:54:00.713Z,69.01
2019-05-26T09:54:46.352Z,68.43
2019-05-26T09:55:45.043Z,67.85
2019-05-26T09:56:43.824Z,68.43
2019-05-26T09:57:42.382Z,68.62
2019-05-26T09:58:41.183Z,68.62
2019-05-26T09:59:39.779Z,68.59
2019-05-26T10:00:38.364Z,68.43
2019-05-26T10:01:37.194Z,68.72
2019-05-26T10:02:35.813Z,68.52
2019-05-26T10:03:34.590Z,68.82
2019-05-26T10:04:33.326Z,68.56
2019-05-26T10:05:32.025Z,68.46
2019-05-26T10:06:30.629Z,68.14
2019-05-26T10:07:29.332Z,68.17
2019-05-26T10:08:27.880Z,67.4
2019-05-26T10:09:26.482Z,66.82
2019-05-26T10:10:25.131Z,67.21
2019-05-26T10:11:23.695Z,67.01
2019-05-26T10:12:22.307Z,66.63
2019-05-26T10:13:31.156Z,67.01
2019-05-26T10:14:19.718Z,67.4
2019-05-26T10:15:18.299Z,66.82
2019-05-26T10:16:17.031Z,66.72
2019-05-26T10:17:15.580Z,66.43
2019-05-26T10:18:14.190Z,65.27
2019-05-26T10:19:12.997Z,63.95
2019-05-26T10:20:11.673Z,63.34
2019-05-26T10:21:10.420Z,63.92
2019-05-26T10:22:09.104Z,63.63
2019-05-26T10:23:07.679Z,63.43
2019-05-26T10:24:06.253Z,63.34
2019-05-26T10:25:04.822Z,64.31
2019-05-26T10:26:03.625Z,64.4
2019-05-26T10:27:02.356Z,63.73
2019-05-26T10:28:00.969Z,63.73
2019-05-26T10:29:00.795Z,63.82
2019-05-26T10:29:58.549Z,63.43
2019-05-26T10:30:57.232Z,64.01
2019-05-26T10:31:55.909Z,64.79
2019-05-26T10:32:54.489Z,64.98
2019-05-26T10:33:53.129Z,65.66
2019-05-26T10:34:51.728Z,65.66
2019-05-26T10:35:50.288Z,66.14
2019-05-26T10:36:48.863Z,65.37
2019-05-26T10:37:47.476Z,64.82
2019-05-26T10:38:46.045Z,63.95
2019-05-26T10:39:45.348Z,62.76
2019-05-26T10:40:43.692Z,62.59
2019-05-26T10:41:42.273Z,62.59
2019-05-26T10:42:40.851Z,63.46
2019-05-26T10:43:47.112Z,63.53
2019-05-26T10:44:38.171Z,63.82
2019-05-26T10:45:36.910Z,64.11
2019-05-26T10:46:35.598Z,63.73
2019-05-26T10:47:34.176Z,63.73
2019-05-26T10:48:32.760Z,63.43
2019-05-26T10:49:31.403Z,63.63
2019-05-26T10:50:30.603Z,64.31
2019-05-26T10:51:29.457Z,64.31
2019-05-26T10:52:28.086Z,64.31
2019-05-26T10:53:26.667Z,64.31
2019-05-26T10:54:25.591Z,64.5
2019-05-26T10:55:24.300Z,63.24
2019-05-26T10:56:22.984Z,63.73
2019-05-26T10:57:21.610Z,63.73
2019-05-26T10:58:20.282Z,62.88
2019-05-26T10:59:19.087Z,63.27
2019-05-26T11:00:17.746Z,63.66
2019-05-26T11:01:16.361Z,63.08
2019-05-26T11:02:15.022Z,63.37
2019-05-26T11:03:13.799Z,63.56
2019-05-26T11:04:12.411Z,63.08
2019-05-26T11:05:11.243Z,62.88
2019-05-26T11:06:09.910Z,62.98
2019-05-26T11:07:08.472Z,62.79
2019-05-26T11:08:07.179Z,62.21
2019-05-26T11:09:05.796Z,62.21
2019-05-26T11:10:04.516Z,62.59
2019-05-26T11:11:03.330Z,63.27
2019-05-26T11:12:02.069Z,63.18
2019-05-26T11:13:00.665Z,62.69
2019-05-26T11:14:02.664Z,63.08
2019-05-26T11:14:57.852Z,62.5
2019-05-26T11:15:56.464Z,62.79
2019-05-26T11:19:35.371Z,62.88
2019-05-26T11:20:33.983Z,62.88
2019-05-26T11:21:32.692Z,62.98
2019-05-26T11:22:31.375Z,63.18
2019-05-26T11:23:29.947Z,63.08
2019-05-26T11:24:28.615Z,62.98
2019-05-26T11:26:51.640Z,62.69
2019-05-26T11:27:50.248Z,63.49
2019-05-26T11:28:48.801Z,62.59
2019-05-26T11:29:47.444Z,62.21
2019-05-26T11:30:46.024Z,62.04
2019-05-26T11:31:44.902Z,61.27
2019-05-26T11:32:43.634Z,60.59
2019-05-26T11:33:42.262Z,60.88
2019-05-26T11:34:40.838Z,60.5
2019-05-26T11:35:39.523Z,61.36
2019-05-26T11:36:38.046Z,60.69
2019-05-26T11:37:36.642Z,60.69
2019-05-26T11:38:35.151Z,60.62
2019-05-26T11:39:33.797Z,60.21
2019-05-26T11:40:32.440Z,60.01
2019-05-26T11:41:31.439Z,60.01
2019-05-26T11:42:30.111Z,60.59
2019-05-26T11:43:28.661Z,60.21
2019-05-26T11:44:27.232Z,59.82
2019-05-26T11:45:25.864Z,59.63
2019-05-26T11:46:24.504Z,59.33
2019-05-26T11:47:23.208Z,59.43
2019-05-26T11:48:21.789Z,59.82
2019-05-26T11:49:20.383Z,60.59
2019-05-26T11:50:19.059Z,58.27
2019-05-26T11:53:58.140Z,59.56
2019-05-26T11:54:56.828Z,60.82
2019-05-26T11:55:55.464Z,61.36
2019-05-26T11:56:54.032Z,61.76
2019-05-26T11:57:52.635Z,62.04
2019-05-26T11:58:51.229Z,60.69
2019-05-26T11:59:49.789Z,58.75
2019-05-26T12:00:48.447Z,58.37
2019-05-26T12:01:47.257Z,57.5
2019-05-26T12:02:45.829Z,57.79
2019-05-26T12:03:44.450Z,57.88
2019-05-26T12:04:43.188Z,58.07
2019-05-26T12:05:41.876Z,58.01
2019-05-26T12:06:40.452Z,58.69
2019-05-26T12:07:39.058Z,58.98
2019-05-26T12:08:37.605Z,59.27
2019-05-26T12:09:36.127Z,59.27
2019-05-26T12:11:58.849Z,59.75
2019-05-26T12:12:57.510Z,60.3
2019-05-26T12:13:56.079Z,59.84
2019-05-26T12:14:54.634Z,59.72
2019-05-26T12:15:53.330Z,59.53
2019-05-26T12:16:51.949Z,59.23
2019-05-26T12:17:50.537Z,58.56
2019-05-26T12:18:49.324Z,58.47
2019-05-26T12:19:47.906Z,59.05
2019-05-26T12:20:46.486Z,60.62
2019-05-26T12:24:25.709Z,59.46
2019-05-26T12:25:24.675Z,58.69
2019-05-26T12:26:23.466Z,59.56
2019-05-26T12:27:22.088Z,59.17
2019-05-26T12:28:20.912Z,59.07
2019-05-26T12:52:55.781Z,59.46
2019-05-26T12:55:36.064Z,58.49
2019-05-26T12:56:35.006Z,58.59
2019-05-26T12:57:34.509Z,58.3
2019-05-26T12:58:33.352Z,58.49
2019-05-26T12:59:31.932Z,58.39
2019-05-26T13:00:45.214Z,58.39
2019-05-26T13:01:29.126Z,58.56
2019-05-26T13:02:28.167Z,59.14
2019-05-26T13:03:26.916Z,59.63
2019-05-26T13:06:07.478Z,59.91
2019-05-26T13:10:48.764Z,59.43
2019-05-26T13:14:27.745Z,59.43
2019-05-26T13:18:06.737Z,60.17
2019-05-26T13:19:05.447Z,60.66
2019-05-26T13:20:04.033Z,60.57
2019-05-26T13:21:02.596Z,60.66
2019-05-26T13:22:01.368Z,60.66
2019-05-26T13:23:00.010Z,60.66
2019-05-26T13:23:58.716Z,60.27
2019-05-26T13:24:57.430Z,60.17
2019-05-26T13:25:56.015Z,59.5
2019-05-26T13:26:54.900Z,59.21
2019-05-26T13:27:53.554Z,58.65
2019-05-26T13:28:52.179Z,58.75
2019-05-26T13:29:50.846Z,58.85
2019-05-26T13:30:49.504Z,59.31
2019-05-26T13:42:29.533Z,57.88
2019-05-26T13:43:28.373Z,57.69
2019-05-26T13:44:26.988Z,58.04
2019-05-26T13:47:07.752Z,58.24
2019-05-26T13:48:06.466Z,58.63
2019-05-26T14:16:12.603Z,55.94
2019-05-26T14:18:52.692Z,55.76
2019-05-26T14:19:51.551Z,55.17
2019-05-26T14:20:50.176Z,55.17
2019-05-26T14:21:48.830Z,55.53
2019-05-26T14:22:47.654Z,54.95
2019-05-26T14:23:46.195Z,55.34
2019-05-26T14:24:53.177Z,55.85
2019-05-26T14:27:25.227Z,54.88
2019-05-26T14:29:25.920Z,54.27
2019-05-26T14:30:24.485Z,54.57
2019-05-26T14:31:23.293Z,55.05
2019-05-26T14:32:22.003Z,54.66
2019-05-26T14:34:44.945Z,54.66
2019-05-26T14:35:43.639Z,55.05
2019-05-26T14:36:42.242Z,54.57
2019-05-26T14:37:40.839Z,54.75
2019-05-26T14:38:43.023Z,54.85
2019-05-26T14:39:38.255Z,54.47
2019-05-26T14:40:37.034Z,53.69
2019-05-26T14:42:53.567Z,53.89
2019-05-26T14:45:03.998Z,53.21
2019-05-26T14:47:36.346Z,53.31
2019-05-26T14:48:35.116Z,53.11
2019-05-26T14:49:33.697Z,53.59
2019-05-26T14:50:32.272Z,51.37
2019-05-26T14:53:13.304Z,50.31
2019-05-26T14:54:12.014Z,50.4
2019-05-26T14:55:10.555Z,50.21
2019-05-26T14:56:09.272Z,50.31
2019-05-26T14:57:08.153Z,50.5
2019-05-26T14:58:15.492Z,49.92
2019-05-26T14:59:05.503Z,49.63
2019-05-26T15:01:45.691Z,50.6
2019-05-26T15:02:44.255Z,50.79
2019-05-26T15:03:42.932Z,50.98
2019-05-26T15:04:42.057Z,51.35
2019-05-26T15:05:40.866Z,50.89
2019-05-26T15:06:39.680Z,51.66
2019-05-26T15:07:38.240Z,51.08
2019-05-26T15:08:36.823Z,51.28
2019-05-26T15:09:35.586Z,51.47
2019-05-26T15:10:34.325Z,51.47
2019-05-26T15:11:33.168Z,51.86
2019-05-26T15:12:31.989Z,52.34
2019-05-26T15:13:30.680Z,52.34
2019-05-26T15:14:29.684Z,52.24
2019-05-26T15:15:28.354Z,52.24
2019-05-26T15:16:26.983Z,52.44
2019-05-26T15:17:25.749Z,52.53
2019-05-26T15:18:24.481Z,52.73
2019-05-26T15:19:23.120Z,52.82
2019-05-26T15:20:21.843Z,52.14
2019-05-26T15:21:20.493Z,51.56
2019-05-26T15:22:19.165Z,52.05
2019-05-26T15:23:17.879Z,51.95
2019-05-26T15:24:16.531Z,51.66
2019-05-26T15:25:15.241Z,51.76